Penn Wynne, Pennsylvania
Current Conditions -  °F | °C
As of 8:54 AM on Tuesday 21 Oct 2014 (Local Time) from KPHL Reporting Station
Scattered Clouds Scattered Clouds  
Wind Chill: 56°   Ceiling: Unl
Heat Index: 56°   Visibility: 10mi
Dew Point: 51°   Wind: 3mph
Humidity: 84%   Direction: 90°E
Pressure: 29.88"   Gusts: NA
Location:  39.9976°N, 75.2742°W
Report Text: KPHL 211254Z 09003KT 10SM FEW065 SCT120 13/11 A2988 RMK AO2 SLP119 T01330106
Loading
Personal Weather Stations






























Interactive Weather Map
Tropical Storm Tracking
New forecast layout! Learn more

10-Day Weather Forecast

Advertisements
Track Severe Weather on mobile